Time;durP1;ratioP1;P1;durP2;ratioP2;P2;SDS_P1;SDS_P2;PMS_P1;PMS_P2;Temp;Humidity;BMP_temperature;BMP_pressure;BME280_temperature;BME280_humidity;BME280_pressure;Samples;Min_cycle;Max_cycle;Signal;HPM_P1;HPM_P2
2023/01/03 00:01:23;;;;;;;4.23;1.80;;;6.70;99.90;;;;;;5012387;28;20215;-85
2023/01/03 00:03:52;;;;;;;4.03;1.83;;;6.70;99.90;;;;;;5014693;28;20207;-87
2023/01/03 00:06:22;;;;;;;2.93;1.57;;;6.60;99.90;;;;;;5014882;28;20223;-88
2023/01/03 00:08:49;;;;;;;4.53;1.70;;;6.70;99.90;;;;;;5014338;28;20479;-86
2023/01/03 00:11:18;;;;;;;4.83;1.67;;;6.80;99.90;;;;;;5013600;28;20611;-79
2023/01/03 00:13:45;;;;;;;3.77;1.73;;;6.70;99.90;;;;;;5011579;28;20231;-80
2023/01/03 00:16:16;;;;;;;4.90;1.90;;;6.80;99.90;;;;;;5012247;28;20223;-84
2023/01/03 00:18:45;;;;;;;4.60;2.17;;;6.70;99.90;;;;;;5015193;28;20199;-86
2023/01/03 00:21:12;;;;;;;6.40;2.40;;;6.80;99.90;;;;;;5017387;28;20210;-85
2023/01/03 00:23:39;;;;;;;6.17;2.00;;;6.70;99.90;;;;;;5034237;28;20198;-86
2023/01/03 00:26:10;;;;;;;2.03;1.37;;;6.70;99.90;;;;;;5033800;28;20290;-85
2023/01/03 00:28:37;;;;;;;3.57;1.70;;;6.70;99.90;;;;;;5021917;28;20286;-88
2023/01/03 00:31:06;;;;;;;5.23;2.30;;;6.70;99.90;;;;;;5014752;28;20615;-87
2023/01/03 00:33:33;;;;;;;6.37;2.43;;;6.60;99.90;;;;;;5016373;28;20210;-88
2023/01/03 00:36:03;;;;;;;6.87;2.37;;;6.60;99.90;;;;;;5034236;28;20250;-87
2023/01/03 00:38:30;;;;;;;2.70;1.67;;;6.50;99.90;;;;;;5034784;28;20209;-83
2023/01/03 00:41:04;;;;;;;3.13;1.90;;;6.50;99.90;;;;;;5024420;28;20234;-84
2023/01/03 00:43:31;;;;;;;4.80;1.60;;;6.50;99.90;;;;;;5013808;28;20282;-84
2023/01/03 00:45:58;;;;;;;3.43;1.43;;;6.40;99.90;;;;;;5014355;28;20737;-84
2023/01/03 00:48:25;;;;;;;2.87;1.30;;;6.30;99.90;;;;;;5014117;28;20309;-84
2023/01/03 00:50:52;;;;;;;4.40;1.40;;;6.20;99.90;;;;;;5013927;28;20203;-83
2023/01/03 00:53:20;;;;;;;4.87;1.57;;;6.10;99.90;;;;;;5018517;28;20199;-82
2023/01/03 00:55:48;;;;;;;2.27;1.40;;;6.10;99.90;;;;;;5033253;28;20205;-84
2023/01/03 00:58:15;;;;;;;3.10;1.57;;;6.00;99.90;;;;;;5033571;28;20238;-80
2023/01/03 01:00:42;;;;;;;2.27;1.40;;;6.00;99.90;;;;;;5033554;28;20233;-83
2023/01/03 01:03:09;;;;;;;3.37;1.37;;;6.00;99.90;;;;;;5033191;28;20599;-81
2023/01/03 01:05:36;;;;;;;3.80;1.63;;;6.00;99.90;;;;;;5033611;28;20237;-86
2023/01/03 01:08:03;;;;;;;2.23;1.57;;;6.10;99.90;;;;;;5033956;28;20214;-85
2023/01/03 01:10:31;;;;;;;3.60;1.33;;;6.20;99.90;;;;;;5029577;28;20290;-80
2023/01/03 01:12:58;;;;;;;4.13;1.60;;;6.10;99.90;;;;;;5013659;28;20195;-85
2023/01/03 01:15:25;;;;;;;2.23;1.17;;;6.10;99.90;;;;;;5013364;28;20631;-84
2023/01/03 01:17:52;;;;;;;3.20;1.40;;;6.10;99.90;;;;;;5013454;28;20639;-85
2023/01/03 01:20:19;;;;;;;3.37;1.40;;;6.00;99.90;;;;;;5029473;28;20216;-82
2023/01/03 01:22:45;;;;;;;5.10;1.47;;;6.00;99.90;;;;;;5033742;28;20198;-85
2023/01/03 01:25:12;;;;;;;3.10;1.50;;;6.00;99.90;;;;;;5029961;28;20637;-84
2023/01/03 01:27:41;;;;;;;4.30;1.70;;;5.90;99.90;;;;;;5033709;28;20562;-84
2023/01/03 01:30:08;;;;;;;2.60;1.30;;;5.90;99.90;;;;;;5033368;28;20249;-83
2023/01/03 01:32:35;;;;;;;4.77;1.80;;;5.80;99.90;;;;;;5032548;28;20217;-84
2023/01/03 01:35:02;;;;;;;4.27;1.70;;;5.80;99.90;;;;;;5032869;28;20199;-84
2023/01/03 01:37:29;;;;;;;2.07;1.27;;;5.70;99.90;;;;;;5031370;28;20229;-80
2023/01/03 01:39:56;;;;;;;3.60;1.37;;;5.70;99.90;;;;;;5030861;28;20199;-83
2023/01/03 01:45:13;;;;;;;2.77;1.33;;;5.60;99.90;;;;;;5031118;28;20245;-81
2023/01/03 01:47:51;;;;;;;2.33;1.40;;;5.50;99.90;;;;;;5032246;28;20198;-79
2023/01/03 01:50:23;;;;;;;2.37;1.50;;;5.50;99.90;;;;;;5023946;28;20215;-83
2023/01/03 01:52:54;;;;;;;1.93;1.70;;;5.40;99.90;;;;;;5012117;28;20278;-79
2023/01/03 01:55:25;;;;;;;3.53;1.60;;;5.40;99.90;;;;;;5012613;28;20547;-81
2023/01/03 01:57:52;;;;;;;2.70;1.50;;;5.40;99.90;;;;;;5023429;28;20322;-84
2023/01/03 02:00:21;;;;;;;3.63;1.60;;;5.30;99.90;;;;;;5014795;28;20282;-82
2023/01/03 02:02:50;;;;;;;2.83;1.70;;;5.30;99.90;;;;;;5016185;28;20234;-80
2023/01/03 02:05:20;;;;;;;4.33;2.03;;;5.30;99.90;;;;;;5016482;28;20294;-84
2023/01/03 02:07:49;;;;;;;3.87;2.93;;;5.30;99.90;;;;;;5015616;28;20492;-82
2023/01/03 02:10:18;;;;;;;3.90;2.13;;;5.30;99.90;;;;;;5016633;28;20250;-81
2023/01/03 02:13:06;;;;;;;3.83;2.53;;;5.20;99.90;;;;;;5016066;28;20192;-82
2023/01/03 02:15:49;;;;;;;3.87;1.70;;;5.20;99.90;;;;;;5017184;28;20237;-82
2023/01/03 02:18:27;;;;;;;2.73;1.73;;;5.20;99.90;;;;;;5017786;28;20281;-84
2023/01/03 02:21:28;;;;;;;5.03;1.93;;;5.20;99.90;;;;;;5013798;28;20195;-79
2023/01/03 02:24:24;;;;;;;2.80;1.77;;;5.20;99.90;;;;;;5030083;28;20210;-78
2023/01/03 02:26:58;;;;;;;4.33;2.00;;;5.10;99.90;;;;;;5035534;28;20194;-83
2023/01/03 02:29:50;;;;;;;3.10;1.80;;;5.20;99.90;;;;;;5027850;28;20202;-82
2023/01/03 02:32:24;;;;;;;2.33;1.10;;;5.20;99.90;;;;;;5014966;28;20188;-82
2023/01/03 02:35:03;;;;;;;3.53;1.20;;;5.20;99.90;;;;;;5013434;28;20262;-80
2023/01/03 02:37:39;;;;;;;3.33;1.70;;;5.20;99.90;;;;;;5013520;28;20310;-78
2023/01/03 02:40:13;;;;;;;2.73;1.40;;;5.20;99.90;;;;;;5014151;28;20505;-79
2023/01/03 02:42:57;;;;;;;4.27;1.50;;;5.20;99.90;;;;;;5012532;28;20194;-78
2023/01/03 02:45:45;;;;;;;3.77;1.73;;;5.20;99.90;;;;;;5033671;28;20217;-79
2023/01/03 02:48:21;;;;;;;1.87;1.60;;;5.10;99.90;;;;;;5032953;28;20202;-78
2023/01/03 02:50:51;;;;;;;3.10;1.70;;;5.00;99.90;;;;;;5025949;28;20195;-80
2023/01/03 02:53:21;;;;;;;3.23;1.70;;;5.00;99.90;;;;;;5014259;28;20294;-79
2023/01/03 02:55:51;;;;;;;4.67;1.83;;;4.90;99.90;;;;;;5013422;28;20278;-78
2023/01/03 02:58:22;;;;;;;4.40;1.73;;;4.80;99.90;;;;;;5013827;28;20224;-79
2023/01/03 03:00:54;;;;;;;2.20;1.57;;;4.80;99.90;;;;;;5014503;28;20203;-79
2023/01/03 03:03:28;;;;;;;3.77;1.90;;;4.80;99.90;;;;;;5013240;28;20214;-79
2023/01/03 03:06:03;;;;;;;5.33;2.03;;;4.80;99.90;;;;;;5014262;28;20518;-78
2023/01/03 03:08:29;;;;;;;4.47;2.10;;;4.70;99.90;;;;;;5014663;28;20278;-79
2023/01/03 03:13:46;;;;;;;4.07;2.47;;;4.70;99.90;;;;;;5034034;28;20341;-80
2023/01/03 03:16:46;;;;;;;5.90;1.93;;;4.60;99.90;;;;;;5018537;28;20580;-79
2023/01/03 03:24:48;;;;;;;2.90;1.90;;;4.60;99.90;;;;;;5013079;28;20215;-79
2023/01/03 03:24:59;;;;;;;4.83;1.60;;;4.50;99.90;;;;;;5014455;28;20257;-82
2023/01/03 03:30:16;;;;;;;7.43;2.30;;;4.40;99.90;;;;;;5014603;28;20183;-82
2023/01/03 03:32:46;;;;;;;3.53;2.00;;;4.40;99.90;;;;;;5012534;28;20206;-78
2023/01/03 03:35:17;;;;;;;3.07;1.87;;;4.30;99.90;;;;;;5013878;28;20283;-78
2023/01/03 03:37:48;;;;;;;2.10;1.70;;;4.30;99.90;;;;;;5023455;28;20802;-84
2023/01/03 03:45:58;;;;;;;6.47;2.10;;;4.30;99.90;;;;;;5013279;28;20503;-81
2023/01/03 03:48:30;;;;;;;5.00;2.23;;;4.20;99.90;;;;;;5013354;28;20199;-78
2023/01/03 03:51:05;;;;;;;7.00;3.20;;;4.20;99.90;;;;;;5013078;28;20643;-81
2023/01/03 03:53:35;;;;;;;3.73;2.63;;;4.20;99.90;;;;;;5012051;28;20202;-78
2023/01/03 03:56:07;;;;;;;4.40;2.30;;;4.20;99.90;;;;;;5012386;28;20191;-78
2023/01/03 03:58:39;;;;;;;4.80;2.30;;;4.20;99.90;;;;;;5012677;28;20227;-78
2023/01/03 04:01:07;;;;;;;4.50;2.90;;;4.20;99.90;;;;;;5012293;28;20210;-78
2023/01/03 04:03:37;;;;;;;4.23;2.90;;;4.10;99.90;;;;;;5013268;28;20294;-78
2023/01/03 04:06:09;;;;;;;3.87;2.70;;;4.10;99.90;;;;;;5012074;28;20230;-78
2023/01/03 04:08:36;;;;;;;2.87;2.47;;;4.00;99.90;;;;;;5013403;28;20251;-77
2023/01/03 04:11:05;;;;;;;3.57;2.50;;;4.00;99.90;;;;;;5017595;28;20264;-79
2023/01/03 04:13:32;;;;;;;3.07;2.30;;;3.90;99.90;;;;;;5014280;28;20209;-79
2023/01/03 04:15:59;;;;;;;2.93;2.20;;;3.90;99.90;;;;;;5012937;28;20629;-78
2023/01/03 04:18:26;;;;;;;4.23;2.40;;;3.80;99.90;;;;;;5013167;28;20237;-80
2023/01/03 04:20:53;;;;;;;3.23;2.20;;;3.80;99.90;;;;;;5011576;28;20199;-78
2023/01/03 04:23:22;;;;;;;5.73;2.70;;;3.80;99.90;;;;;;5012166;28;20487;-78
2023/01/03 04:25:49;;;;;;;3.97;2.70;;;3.80;99.90;;;;;;5012324;28;20290;-80
2023/01/03 04:28:16;;;;;;;3.03;2.60;;;3.70;99.90;;;;;;5012108;28;20198;-79
2023/01/03 04:30:43;;;;;;;3.10;2.40;;;3.70;99.90;;;;;;5012208;28;20517;-81
2023/01/03 04:33:10;;;;;;;3.77;2.63;;;3.60;99.90;;;;;;5011618;28;20207;-79
2023/01/03 04:35:37;;;;;;;3.50;2.63;;;3.60;99.90;;;;;;5011809;28;20222;-79
2023/01/03 04:38:04;;;;;;;3.40;3.03;;;3.60;99.90;;;;;;5011602;28;20230;-80
2023/01/03 04:40:33;;;;;;;5.70;3.63;;;3.50;99.90;;;;;;5014400;28;20230;-81
2023/01/03 04:45:45;;;;;;;4.10;3.70;;;3.50;99.90;;;;;;5033651;28;20189;-83
2023/01/03 04:48:12;;;;;;;5.00;3.60;;;3.40;99.90;;;;;;5021106;28;20207;-82
2023/01/03 04:50:38;;;;;;;5.70;3.50;;;3.40;99.90;;;;;;5028387;28;20284;-82
2023/01/03 04:53:06;;;;;;;6.40;3.77;;;3.40;99.90;;;;;;5033814;28;20209;-83
2023/01/03 04:55:35;;;;;;;6.90;4.47;;;3.30;99.90;;;;;;5033273;28;20226;-82
2023/01/03 04:58:01;;;;;;;9.20;5.63;;;3.30;99.90;;;;;;5032847;28;20236;-83
2023/01/03 05:00:28;;;;;;;11.30;7.10;;;3.40;99.90;;;;;;5033037;28;20681;-82
2023/01/03 05:02:55;;;;;;;11.03;6.53;;;3.40;99.90;;;;;;5031930;28;20202;-81
2023/01/03 05:05:22;;;;;;;10.60;7.37;;;3.50;99.90;;;;;;5033716;28;20276;-82
2023/01/03 05:07:49;;;;;;;9.00;6.97;;;3.50;99.90;;;;;;5033106;28;20203;-80
2023/01/03 05:10:16;;;;;;;12.40;7.70;;;3.50;99.90;;;;;;5032717;28;20289;-82
2023/01/03 05:12:58;;;;;;;10.17;7.70;;;3.60;99.90;;;;;;5033006;28;20233;-81
2023/01/03 05:15:25;;;;;;;11.93;8.80;;;3.60;99.90;;;;;;5032931;28;20222;-83
2023/01/03 05:17:53;;;;;;;14.73;8.33;;;3.50;99.90;;;;;;5032764;28;20746;-81
2023/01/03 05:25:50;;;;;;;13.50;8.83;;;3.60;99.90;;;;;;5012889;28;20602;-82
2023/01/03 05:28:21;;;;;;;12.10;9.10;;;3.60;99.90;;;;;;5013018;28;20218;-83
2023/01/03 05:30:48;;;;;;;12.30;9.30;;;3.70;99.90;;;;;;5013588;28;20298;-84
2023/01/03 05:33:15;;;;;;;16.50;10.63;;;3.70;99.90;;;;;;5012833;28;20227;-81
2023/01/03 05:35:44;;;;;;;19.43;11.10;;;3.80;99.90;;;;;;5016223;28;20266;-83
2023/01/03 05:38:11;;;;;;;13.37;10.47;;;3.80;99.90;;;;;;5016553;28;20231;-83
2023/01/03 05:40:38;;;;;;;17.67;11.87;;;3.90;99.90;;;;;;5016992;28;20235;-83
2023/01/03 05:43:05;;;;;;;20.27;12.47;;;3.90;99.90;;;;;;5016766;28;20286;-81
2023/01/03 05:45:35;;;;;;;19.77;12.77;;;3.90;99.90;;;;;;5015955;28;20199;-82
2023/01/03 05:48:02;;;;;;;19.83;12.97;;;3.90;99.90;;;;;;5024546;28;20299;-82
2023/01/03 05:50:29;;;;;;;20.13;12.93;;;3.90;99.90;;;;;;5036481;28;20277;-82
2023/01/03 05:52:56;;;;;;;24.07;14.67;;;3.90;99.90;;;;;;5025995;28;20250;-80
2023/01/03 05:55:23;;;;;;;23.90;16.27;;;3.80;99.90;;;;;;5015825;28;20242;-82
2023/01/03 05:57:51;;;;;;;22.17;15.30;;;3.80;99.90;;;;;;5014894;28;20281;-81
2023/01/03 06:00:18;;;;;;;27.77;16.47;;;3.80;99.90;;;;;;5014468;28;20299;-80
2023/01/03 06:02:47;;;;;;;20.67;15.83;;;3.80;99.90;;;;;;5015838;28;20211;-82
2023/01/03 06:05:14;;;;;;;24.97;15.47;;;3.80;99.90;;;;;;5016494;28;20291;-81
2023/01/03 06:07:40;;;;;;;23.03;15.77;;;3.80;99.90;;;;;;5019480;28;20199;-81
2023/01/03 06:10:09;;;;;;;23.47;15.47;;;3.80;99.90;;;;;;5018312;28;20200;-82
2023/01/03 06:12:35;;;;;;;23.97;15.57;;;3.70;99.90;;;;;;5017033;28;20249;-82
2023/01/03 06:15:02;;;;;;;23.70;16.90;;;3.80;99.90;;;;;;5016622;28;20227;-84
2023/01/03 06:20:15;;;;;;;22.13;16.60;;;3.80;99.90;;;;;;5016923;28;20490;-84
2023/01/03 06:22:42;;;;;;;26.67;17.30;;;3.80;99.90;;;;;;5016375;28;20203;-84
2023/01/03 06:25:10;;;;;;;29.03;17.50;;;3.70;99.90;;;;;;5015951;28;20203;-83
2023/01/03 06:27:37;;;;;;;27.07;16.73;;;3.80;99.90;;;;;;5016180;28;20206;-83
2023/01/03 06:30:04;;;;;;;26.90;17.97;;;3.80;99.90;;;;;;5016208;28;20286;-84
2023/01/03 06:32:32;;;;;;;27.73;17.80;;;3.80;99.90;;;;;;5016671;28;20199;-83
2023/01/03 06:34:59;;;;;;;34.23;19.23;;;3.80;99.90;;;;;;5027630;28;20287;-82
2023/01/03 06:37:27;;;;;;;27.53;19.13;;;3.80;99.90;;;;;;5027111;28;20302;-81
2023/01/03 06:39:54;;;;;;;29.37;19.10;;;3.70;99.90;;;;;;5016228;28;20199;-80
2023/01/03 06:42:41;;;;;;;28.00;19.47;;;3.80;99.90;;;;;;5014864;28;20203;-80
2023/01/03 06:53:33;;;;;;;26.57;18.70;;;3.80;99.90;;;;;;5015684;28;20850;-83
2023/01/03 06:56:00;;;;;;;36.50;22.37;;;3.80;99.90;;;;;;5014665;28;20222;-81
2023/01/03 06:58:27;;;;;;;30.67;21.03;;;3.80;99.90;;;;;;5014758;28;20330;-81
2023/01/03 07:00:55;;;;;;;33.87;22.73;;;3.80;99.90;;;;;;5021474;28;20675;-83
2023/01/03 07:03:23;;;;;;;32.70;22.57;;;3.90;99.90;;;;;;5034956;28;20202;-81
2023/01/03 07:05:50;;;;;;;37.20;21.90;;;3.90;99.90;;;;;;5035194;28;20191;-81
2023/01/03 07:08:17;;;;;;;41.03;23.70;;;3.90;99.90;;;;;;5016397;28;20207;-81
2023/01/03 07:10:46;;;;;;;39.10;23.77;;;3.90;99.90;;;;;;5042276;28;20271;-83
2023/01/03 07:15:57;;;;;;;41.37;25.83;;;4.00;99.90;;;;;;5014108;28;20523;-81
2023/01/03 07:18:25;;;;;;;36.60;24.80;;;4.00;99.90;;;;;;5014625;28;20515;-81
2023/01/03 07:20:52;;;;;;;35.13;24.17;;;4.10;99.90;;;;;;5026771;28;20207;-84
2023/01/03 07:23:19;;;;;;;42.30;26.50;;;4.10;99.90;;;;;;5031617;28;20273;-80
2023/01/03 07:25:47;;;;;;;41.80;26.70;;;4.10;99.90;;;;;;5033350;28;20204;-78
2023/01/03 07:28:16;;;;;;;40.30;26.93;;;4.10;99.90;;;;;;5032751;28;20238;-80
2023/01/03 07:30:44;;;;;;;41.47;26.83;;;4.20;99.90;;;;;;5031939;28;20205;-79
2023/01/03 07:33:12;;;;;;;41.47;25.40;;;4.20;99.90;;;;;;5032554;28;20597;-80
2023/01/03 07:35:39;;;;;;;38.67;25.93;;;4.20;99.90;;;;;;5032885;28;20828;-79
2023/01/03 07:38:08;;;;;;;38.90;25.57;;;4.30;99.90;;;;;;5032900;28;20603;-82
2023/01/03 07:40:35;;;;;;;34.90;25.83;;;4.30;99.90;;;;;;5032438;28;20686;-81
2023/01/03 07:45:49;;;;;;;39.03;27.17;;;4.30;99.90;;;;;;5031320;28;20202;-78
2023/01/03 07:48:16;;;;;;;33.17;25.07;;;4.40;99.90;;;;;;5032451;28;20615;-81
2023/01/03 07:50:43;;;;;;;40.97;27.60;;;4.40;99.90;;;;;;5031859;28;20211;-80
2023/01/03 07:53:15;;;;;;;38.53;27.37;;;4.50;99.90;;;;;;5032533;28;20286;-80
2023/01/03 07:55:43;;;;;;;41.53;26.60;;;4.50;99.90;;;;;;5033011;28;20205;-80
2023/01/03 07:58:11;;;;;;;38.67;25.23;;;4.60;99.90;;;;;;5017226;28;20243;-79
2023/01/03 08:00:39;;;;;;;38.50;26.53;;;4.60;99.90;;;;;;5012248;28;20199;-78
2023/01/03 08:03:06;;;;;;;37.50;27.43;;;4.60;99.90;;;;;;5013300;28;20580;-78
2023/01/03 08:05:34;;;;;;;39.43;25.93;;;4.70;99.90;;;;;;5020463;28;20199;-81
2023/01/03 08:08:02;;;;;;;38.87;26.40;;;4.70;99.90;;;;;;5020891;28;20259;-79
2023/01/03 08:13:19;;;;;;;39.90;25.40;;;4.70;99.90;;;;;;5011743;28;20202;-80
2023/01/03 08:15:48;;;;;;;34.67;25.17;;;4.70;99.90;;;;;;5012773;28;20275;-78
2023/01/03 08:18:16;;;;;;;36.50;25.33;;;4.80;99.90;;;;;;5013276;28;20321;-81
2023/01/03 08:20:43;;;;;;;34.00;25.07;;;4.80;99.90;;;;;;5012357;28;20202;-79
2023/01/03 08:23:10;;;;;;;33.43;24.53;;;4.80;99.90;;;;;;5012810;28;20199;-80
2023/01/03 08:25:38;;;;;;;33.53;24.83;;;4.80;99.90;;;;;;5018241;28;20202;-80
2023/01/03 08:28:06;;;;;;;36.80;24.30;;;4.80;99.90;;;;;;5031429;28;20603;-80
2023/01/03 08:30:38;;;;;;;35.57;24.83;;;4.80;99.90;;;;;;5032250;28;20198;-79
2023/01/03 08:33:07;;;;;;;30.93;22.77;;;4.90;99.90;;;;;;5031971;28;20194;-79
2023/01/03 08:35:35;;;;;;;37.40;24.27;;;4.90;99.90;;;;;;5022391;28;20207;-80
2023/01/03 08:38:05;;;;;;;30.67;23.27;;;5.00;99.90;;;;;;5022771;28;20206;-81
2023/01/03 08:40:36;;;;;;;31.37;23.87;;;5.00;99.90;;;;;;5032620;28;20301;-78
2023/01/03 08:43:04;;;;;;;30.30;22.23;;;5.00;99.90;;;;;;5020651;28;20632;-79
2023/01/03 08:45:31;;;;;;;31.03;21.93;;;5.10;99.90;;;;;;5012579;28;20278;-80
2023/01/03 08:48:02;;;;;;;32.63;21.93;;;5.10;99.90;;;;;;5011912;28;20294;-77
2023/01/03 08:50:30;;;;;;;27.90;21.13;;;5.10;99.90;;;;;;5012643;28;20256;-81
2023/01/03 08:52:57;;;;;;;27.43;21.67;;;5.20;99.90;;;;;;5027905;28;20218;-82
2023/01/03 08:55:24;;;;;;;25.10;20.23;;;5.20;99.90;;;;;;5032747;28;20543;-83
2023/01/03 08:57:51;;;;;;;33.80;20.90;;;5.30;99.90;;;;;;5031067;28;20253;-82
2023/01/03 09:00:18;;;;;;;27.43;20.50;;;5.30;99.90;;;;;;5030328;28;20674;-82
2023/01/03 09:02:45;;;;;;;28.20;19.43;;;5.30;99.90;;;;;;5030164;28;20281;-82
2023/01/03 09:05:14;;;;;;;27.97;19.87;;;5.40;99.90;;;;;;5030858;28;20285;-79
2023/01/03 09:07:41;;;;;;;24.03;19.73;;;5.40;99.90;;;;;;5028986;28;20610;-80
2023/01/03 09:10:09;;;;;;;31.17;21.30;;;5.50;99.90;;;;;;5029062;28;20221;-79
2023/01/03 09:12:36;;;;;;;28.90;21.33;;;5.50;99.90;;;;;;5030999;28;20489;-79
2023/01/03 09:15:03;;;;;;;35.70;21.20;;;5.60;99.90;;;;;;5029949;28;20309;-79
2023/01/03 09:17:30;;;;;;;29.47;21.57;;;5.60;99.90;;;;;;5030497;28;20278;-80
2023/01/03 09:19:57;;;;;;;33.23;22.40;;;5.70;99.90;;;;;;5030841;28;20708;-81
2023/01/03 09:22:25;;;;;;;37.43;24.47;;;5.70;99.90;;;;;;5029976;28;20215;-79
2023/01/03 09:24:52;;;;;;;33.83;22.57;;;5.80;99.90;;;;;;5030589;28;20237;-81
2023/01/03 09:27:19;;;;;;;32.60;24.43;;;5.90;99.90;;;;;;5030963;28;20195;-79
2023/01/03 09:29:47;;;;;;;33.57;23.87;;;5.90;99.90;;;;;;5031613;28;20677;-80
2023/01/03 09:32:14;;;;;;;32.33;24.40;;;5.90;99.90;;;;;;5010578;28;20269;-79
2023/01/03 09:34:41;;;;;;;38.20;25.17;;;5.90;99.90;;;;;;5012578;28;20207;-80
2023/01/03 09:37:08;;;;;;;37.17;25.10;;;6.00;99.90;;;;;;5023653;28;20203;-80
2023/01/03 09:39:39;;;;;;;39.37;25.80;;;6.00;99.90;;;;;;5031082;28;20878;-82
2023/01/03 09:44:52;;;;;;;36.70;25.97;;;6.10;99.90;;;;;;5028483;28;20214;-81
2023/01/03 09:47:22;;;;;;;38.90;27.03;;;6.10;99.90;;;;;;5031019;28;20613;-80
2023/01/03 09:49:50;;;;;;;41.20;26.10;;;6.20;99.90;;;;;;5049080;28;20212;-86
2023/01/03 10:04:04;;;;;;;42.40;28.60;;;6.40;99.90;;;;;;5032139;28;20244;-83
2023/01/03 10:06:40;;;;;;;37.50;27.00;;;6.40;99.90;;;;;;5031125;28;20486;-83
2023/01/03 10:09:19;;;;;;;47.97;29.13;;;6.40;99.90;;;;;;5026491;28;20249;-82
2023/01/03 10:12:00;;;;;;;40.63;28.37;;;6.50;99.90;;;;;;5020958;28;20193;-83
2023/01/03 10:14:41;;;;;;;43.77;29.47;;;6.50;99.90;;;;;;5031578;28;20425;-85
2023/01/03 10:17:18;;;;;;;42.37;29.47;;;6.60;99.90;;;;;;5028747;28;20217;-84
2023/01/03 10:20:22;;;;;;;50.40;32.03;;;6.60;99.90;;;;;;5030781;28;20289;-85
2023/01/03 10:22:50;;;;;;;47.87;28.87;;;6.60;99.90;;;;;;5032512;28;20591;-82
2023/01/03 10:25:20;;;;;;;43.87;29.73;;;6.70;99.90;;;;;;5036966;28;20871;-81
2023/01/03 10:27:51;;;;;;;44.33;29.70;;;6.70;99.90;;;;;;5030364;28;20602;-85
2023/01/03 10:30:21;;;;;;;49.47;30.40;;;6.80;99.90;;;;;;5036086;28;20198;-84
2023/01/03 10:33:08;;;;;;;44.03;28.63;;;6.80;99.90;;;;;;5053872;28;20224;-85
2023/01/03 10:35:37;;;;;;;50.07;30.27;;;6.80;99.90;;;;;;5055131;28;20215;-84
2023/01/03 10:38:04;;;;;;;42.97;30.07;;;6.90;99.90;;;;;;5052546;28;20198;-85
2023/01/03 10:40:35;;;;;;;48.50;31.63;;;6.90;99.90;;;;;;5053552;28;20296;-84
2023/01/03 10:43:15;;;;;;;49.67;31.13;;;7.00;99.90;;;;;;5032846;28;20286;-84
2023/01/03 10:45:53;;;;;;;43.90;30.43;;;7.00;99.90;;;;;;5016040;28;20202;-84
2023/01/03 10:48:20;;;;;;;42.37;30.17;;;7.10;99.90;;;;;;5033579;28;20195;-84
2023/01/03 10:50:49;;;;;;;42.73;30.60;;;7.00;99.90;;;;;;5030090;28;20213;-82
2023/01/03 10:53:19;;;;;;;47.53;30.77;;;7.00;99.90;;;;;;5048799;28;20218;-83
2023/01/03 10:55:49;;;;;;;46.20;29.03;;;7.10;99.90;;;;;;5031414;28;20187;-84
2023/01/03 10:58:23;;;;;;;40.17;27.90;;;7.10;99.90;;;;;;5049445;28;20309;-88
2023/01/03 11:00:52;;;;;;;43.60;29.90;;;7.10;99.90;;;;;;5035299;28;20631;-83
2023/01/03 11:03:21;;;;;;;50.80;31.30;;;7.20;99.90;;;;;;5035647;28;20202;-86
2023/01/03 11:05:50;;;;;;;43.37;29.20;;;7.20;99.90;;;;;;5035899;28;20219;-85
2023/01/03 11:08:22;;;;;;;42.93;29.37;;;7.20;99.90;;;;;;5053494;28;20618;-87
2023/01/03 11:10:57;;;;;;;51.53;32.87;;;7.20;99.90;;;;;;5055543;28;20190;-85
2023/01/03 11:13:31;;;;;;;46.37;31.00;;;7.30;99.90;;;;;;5047274;28;20573;-87
2023/01/03 11:15:59;;;;;;;45.60;30.43;;;7.30;99.90;;;;;;5035623;28;20582;-86
2023/01/03 11:18:29;;;;;;;45.67;30.43;;;7.30;99.90;;;;;;5035800;28;20295;-86
2023/01/03 11:21:08;;;;;;;44.77;28.87;;;7.40;99.90;;;;;;5033830;28;20554;-84
2023/01/03 11:23:59;;;;;;;46.90;30.93;;;7.40;99.90;;;;;;5014948;28;20674;-86
2023/01/03 11:26:47;;;;;;;41.43;29.90;;;7.40;99.90;;;;;;5021909;28;20228;-85
2023/01/03 11:29:28;;;;;;;42.47;28.77;;;7.40;99.90;;;;;;5036363;28;20281;-81
2023/01/03 11:32:02;;;;;;;37.33;27.40;;;7.50;99.90;;;;;;5026801;28;20227;-84
2023/01/03 11:34:51;;;;;;;39.97;29.80;;;7.50;99.90;;;;;;5034533;28;20273;-84
2023/01/03 11:37:30;;;;;;;43.13;31.17;;;7.60;99.90;;;;;;5034371;28;20284;-84
2023/01/03 11:40:08;;;;;;;49.40;31.57;;;7.60;99.90;;;;;;5034005;28;20225;-84
2023/01/03 11:42:51;;;;;;;51.97;31.30;;;7.60;99.90;;;;;;5034974;28;20179;-85
2023/01/03 11:45:51;;;;;;;46.50;31.57;;;7.60;99.90;;;;;;5033767;28;20229;-84
2023/01/03 11:48:41;;;;;;;42.40;28.60;;;7.60;99.90;;;;;;5028983;28;20198;-83
2023/01/03 11:51:23;;;;;;;48.73;29.93;;;7.70;99.90;;;;;;5026495;28;20207;-85
2023/01/03 11:54:01;;;;;;;39.13;28.70;;;7.70;99.90;;;;;;5018103;28;20587;-84
2023/01/03 11:56:31;;;;;;;39.13;28.97;;;7.80;99.90;;;;;;5033996;28;20248;-84
2023/01/03 11:59:31;;;;;;;39.30;28.70;;;7.80;99.90;;;;;;5033399;28;20639;-83
2023/01/03 12:02:32;;;;;;;46.80;30.00;;;7.90;99.90;;;;;;5033884;28;20761;-83
2023/01/03 12:05:22;;;;;;;41.00;28.50;;;7.90;99.90;;;;;;5013412;28;20221;-83
2023/01/03 12:07:57;;;;;;;38.60;26.20;;;8.00;99.90;;;;;;5023393;28;20206;-83
2023/01/03 12:10:29;;;;;;;40.10;26.90;;;8.00;99.90;;;;;;5032653;28;20186;-83
2023/01/03 12:13:14;;;;;;;40.47;25.33;;;8.10;99.90;;;;;;5031529;28;20695;-82
2023/01/03 12:15:46;;;;;;;33.53;26.73;;;8.10;99.90;;;;;;5017990;28;20303;-82
2023/01/03 12:18:24;;;;;;;35.87;25.40;;;8.10;99.90;;;;;;5011886;28;20192;-81
2023/01/03 12:20:56;;;;;;;38.13;24.30;;;8.10;99.90;;;;;;5012313;28;20900;-80
2023/01/03 12:23:35;;;;;;;34.40;24.23;;;8.10;99.90;;;;;;5012468;28;20254;-81
2023/01/03 12:26:06;;;;;;;35.17;23.10;;;8.10;99.90;;;;;;5012452;28;20226;-82
2023/01/03 12:28:38;;;;;;;32.50;22.57;;;8.20;99.90;;;;;;5013312;28;20191;-82
2023/01/03 12:31:17;;;;;;;38.30;23.00;;;8.20;99.90;;;;;;5012963;28;20226;-81
2023/01/03 12:33:53;;;;;;;28.93;22.00;;;8.30;99.90;;;;;;5011562;28;20848;-81
2023/01/03 12:36:30;;;;;;;32.93;20.63;;;8.30;99.90;;;;;;5012575;28;20619;-83
2023/01/03 12:39:07;;;;;;;32.30;21.37;;;8.30;99.90;;;;;;5011832;28;20225;-80
2023/01/03 12:41:39;;;;;;;37.73;21.63;;;8.40;99.90;;;;;;5011577;28;20222;-80
2023/01/03 12:44:12;;;;;;;32.13;20.63;;;8.40;99.90;;;;;;5014937;28;20206;-82
2023/01/03 12:46:46;;;;;;;27.37;19.73;;;8.40;99.90;;;;;;5031330;28;20221;-80
2023/01/03 12:49:19;;;;;;;30.07;20.90;;;8.40;99.90;;;;;;5031606;28;20229;-81
2023/01/03 12:51:46;;;;;;;26.80;19.20;;;8.50;99.90;;;;;;5030618;28;20191;-81
2023/01/03 12:54:25;;;;;;;28.43;18.67;;;8.50;99.90;;;;;;5011502;28;20230;-80
2023/01/03 12:57:26;;;;;;;27.07;17.53;;;8.50;99.90;;;;;;5012219;28;20504;-82
2023/01/03 13:00:27;;;;;;;26.43;16.63;;;8.50;99.90;;;;;;5011822;28;20225;-81
2023/01/03 13:02:59;;;;;;;21.13;16.83;;;8.60;99.90;;;;;;5002413;28;20215;-81
2023/01/03 13:05:35;;;;;;;18.47;15.67;;;8.60;99.90;;;;;;5012271;28;20269;-79
2023/01/03 13:08:08;;;;;;;25.10;16.60;;;8.70;99.90;;;;;;5010787;28;20740;-81
2023/01/03 13:10:40;;;;;;;26.03;16.43;;;8.70;99.90;;;;;;5011414;28;20243;-82
2023/01/03 13:13:14;;;;;;;21.17;15.10;;;8.70;99.90;;;;;;5011522;28;20610;-80
2023/01/03 13:15:41;;;;;;;23.93;13.83;;;8.80;99.90;;;;;;5010475;28;20635;-79
2023/01/03 13:18:32;;;;;;;16.97;13.53;;;8.80;99.90;;;;;;5011647;28;20510;-79
2023/01/03 13:21:00;;;;;;;16.70;13.63;;;8.80;99.90;;;;;;5011629;28;20253;-82
2023/01/03 13:23:34;;;;;;;17.80;14.17;;;8.90;99.90;;;;;;5010692;28;20757;-81
2023/01/03 13:26:23;;;;;;;16.63;13.57;;;8.80;99.90;;;;;;5010609;28;20207;-79
2023/01/03 13:28:51;;;;;;;17.63;12.87;;;8.90;99.90;;;;;;5010587;28;20227;-80
2023/01/03 13:32:01;;;;;;;18.43;12.90;;;8.90;99.90;;;;;;5011283;28;20401;-80
2023/01/03 13:34:37;;;;;;;16.73;11.33;;;9.00;99.90;;;;;;5024442;28;20883;-80
2023/01/03 13:37:16;;;;;;;17.60;12.27;;;9.10;99.90;;;;;;5030322;28;20662;-80
2023/01/03 13:40:19;;;;;;;20.00;12.57;;;9.00;99.90;;;;;;5010885;28;20205;-83
2023/01/03 13:42:46;;;;;;;18.67;12.67;;;9.00;99.90;;;;;;5029021;28;20211;-80
2023/01/03 13:45:56;;;;;;;16.57;11.37;;;9.10;99.90;;;;;;5031044;28;20195;-80
2023/01/03 13:48:40;;;;;;;17.47;11.73;;;9.10;99.90;;;;;;5024463;28;20273;-81
2023/01/03 13:51:37;;;;;;;16.50;11.37;;;9.10;99.90;;;;;;5017009;28;20203;-81
2023/01/03 13:54:33;;;;;;;18.50;11.10;;;9.10;99.90;;;;;;5024021;28;20290;-81
2023/01/03 13:57:04;;;;;;;14.50;10.33;;;9.10;99.90;;;;;;5034138;28;20298;-80
2023/01/03 13:59:43;;;;;;;14.63;10.93;;;9.10;99.90;;;;;;5026984;28;20540;-81
2023/01/03 14:03:10;;;;;;;13.67;10.70;;;9.10;99.90;;;;;;5034255;28;20194;-80
2023/01/03 14:06:06;;;;;;;17.30;9.93;;;9.00;99.90;;;;;;5005092;28;20297;-82
2023/01/03 14:09:06;;;;;;;16.30;10.57;;;9.10;99.90;;;;;;5003265;28;20195;-80
2023/01/03 14:11:54;;;;;;;14.33;9.97;;;9.00;99.90;;;;;;5014040;28;20568;-83